AirNav   ATP
 
 903 users online  

I54 Mad River Airpark
Tremont City, Ohio, USA

GOING TO TREMONT CITY?


FAA INFORMATION EFFECTIVE 24 MAY 2018

Location

FAA Identifier: I54
Lat/Long: 40-01-12.2130N / 083-49-42.7480W
40-01.203550N / 083-49.712467W
40.0200592 / -83.8285411
(estimated)
Elevation: 958 ft. / 292 m (estimated)
Variation: 04W (1985)
From city: 1 mile NE of TREMONT CITY, OH
Time zone: UTC -4 (UTC -5 during Standard Time)
Zip code: 45502

Airport Operations

Airport use: Open to the public
Activation date: 07/1964
Control tower: no
ARTCC: INDIANAPOLIS CENTER
FSS: DAYTON FLIGHT SERVICE STATION
NOTAMs facility: DAY (NOTAM-D service available)
Attendance: IREG
Pattern altitude: 1803 ft. MSL
Wind indicator: lighted
Segmented circle: no
Lights: ACTVT LIRL RY 09/27 - 122.8.

Airport Communications

CTAF/UNICOM: 123.0
COLUMBUS APPROACH: 118.425
COLUMBUS DEPARTURE: 118.425
CLASS C IC: 118.425
WX AWOS-3 at I74 (8 nm NE): 118.325 (937-484-5863)
WX AWOS-3PT at SGH (11 nm S): 134.975
WX AWOS-3PT at UYF (18 nm E): 120.85 (740-852-2844)
WX ASOS at DAY (19 nm W): PHONE 937-415-6819
WX AWOS-3 at SCA (20 nm NW): 120.425 (937-492-3683)

Nearby radio navigation aids

VOR radial/distance  VOR name  Freq  Var
SGHr008/11.0SPRINGFIELD VOR/DME113.2004W
RODr154/18.8ROSEWOOD VORTAC117.5005W
DQNr091/26.1DAYTON VOR/DME114.5001W
MXQr002/35.4MIDWEST VOR/DME112.9004W

 
NDB name  Hdg/Dist  Freq  Var  ID
CLARK COUNTY350/9.134104WCCJ -.-. -.-. .---
COURT HOUSE327/32.241406WCSS -.-. ... ...

Airport Services

Parking: hangars and tiedowns
Airframe service: NONE
Powerplant service: NONE
Bottled oxygen: NONE
Bulk oxygen: NONE

Runway Information

Runway 9/27

Dimensions: 3405 x 110 ft. / 1038 x 34 m
Surface: turf, in good condition
Runway edge lights: non-standard
NSTD LIRL; ONLY 2165 FT LGTD BTN DSPLCD THLDS.
Runway edge markings: FIRST 340 FT NOT MKD; RY 27 FIRST 505 FT NOT MKD; ONLY 2560 FT MKD WITH ORANGE CONES; RY 09/27 DSPLCD THLD MKD WITH CONES & ONE GREEN LGT EACH SIDE OF RY.
RUNWAY 9  RUNWAY 27
Latitude: 40-01.191167N40-01.215667N
Longitude: 083-50.076000W083-49.348333W
Elevation: 955.0 ft.955.0 ft.
Gradient: 0.5%0.5%
Traffic pattern: leftleft
Displaced threshold: 340 ft.900 ft.
Markings: nonenone
Runway end identifier lights: no
Obstructions: 25 ft. pole, lighted, 60 ft. left and right of centerline
APCH SLOPE 10:1 TO DSPLCD THLD OVR 186 FT WOODED HILL AT 1955 FT.
15 ft. pole, lighted, 124 ft. left and right of centerline
APCH SLOPE 12:1 TO DSPLCD THLD OVR 105 FT TREES AT 1289 FT FR DSPLCD THLD 167 FT R.

Airport Ownership and Management from official FAA records

Ownership: Privately-owned
Owner: MAD RIVER AIRPARK, LLC
6488 UPPER VALLEY PIKE
URBANA, OH 43078
Phone (937) 390-3040
Manager: TIMOTHY HICKERSON
6488 UPPER VALLEY PIKE
URBANA, OH 43078
Phone (937) 390-3040

Airport Operational Statistics

Aircraft based on the field: 12
Single engine airplanes: 10
Ultralights: 2
    
Aircraft operations: avg 38/week *
50% transient general aviation
50% local general aviation
* for 12-month period ending 27 August 2016

Additional Remarks

CMH APP CD 614-338-8537.

Instrument Procedures

There are no published instrument procedures at I54.

Some nearby airports with instrument procedures:

I74 - Grimes Field Airport (8 nm NE)
KSGH - Springfield-Beckley Municipal Airport (11 nm S)
KFFO - Wright-Patterson Air Force Base (15 nm SW)
KUYF - Madison County Airport (18 nm E)
KDAY - James M Cox Dayton International Airport (19 nm W)
KSCA - Sidney Municipal Airport (20 nm NW)
 
Loc | Ops | Rwys | IFR | FBO | Links
Com | Nav | Svcs | Stats | Notes

AirNav Hotels Sweepstakes
 
Area around I54 (Mad River Airpark)
 
Road maps at: MapQuest Bing Google
 
Aerial photo
WARNING: Photo may not be current or correct
Aerial photo of I54 (Mad River Airpark)
Do you have a better or more recent aerial photo of Mad River Airpark that you would like to share? If so, please send us your photo.

 
Sectional chart

 
Airport distance calculator
Flying to Mad River Airpark? Find the distance to fly.

From to I54

Sunrise and sunset
Times for 27-May-2018
 Local
(UTC-4)
 Zulu
(UTC)
Morning civil twilight05:4009:40
Sunrise06:1210:12
Sunset20:5300:53
Evening civil twilight21:2501:25

Current date and time
Zulu (UTC)  27-May-2018 19:41:28
Local (UTC-4)  27-May-2018 15:41:28
 
METAR
KSGH 
12nm S 
271856Z AUTO VRB04KT 10SM CLR 31/20 A2993 RMK AO2 SLP127 T03060200
KFFO 
15nm SW 
271856Z AUTO 27005KT 10SM FEW060 SCT160 SCT190 32/17 A2991 RMK AO2 SLP125 T03150170 TSNO $
KUYF 
18nm E 
271915Z AUTO 29005KT 10SM CLR 31/17 A2992 RMK AO2
KDAY 
19nm W 
271856Z 00000KT 10SM SCT055 BKN250 31/19 A2993 RMK AO2 SLP125 T03060194
KEDJ 
21nm N 
271915Z AUTO 24005KT 10SM CLR 30/17 A2994 RMK AO1
TAF
KFFO 
15nm SW 
271100Z 2711/2817 21006KT 9999 SCT030 SCT250 QNH2988INS BECMG 2808/2809 21006KT 4800 BR SKC QNH2994INS BECMG 2812/2813 08006KT 9999 NSW SKC QNH2999INS TX29/2720Z TN18/2808Z
KDAY 
19nm W 
271730Z 2718/2818 VRB04KT P6SM SCT035 SCT250 FM280000 VRB03KT P6SM SCT250 FM281000 00000KT 3SM BR SCT250 FM281300 06005KT P6SM BKN250
NOTAMs
Click for the latest NOTAMs
NOTAMs are issued by the DoD/FAA and will open in a separate window not controlled by AirNav.

 

 
 

Would you like to see your business listed on this page?

 If your business provides an interesting product or service to pilots, flight crews, aircraft, or users of the Mad River Airpark, you should consider listing it here.  To start the listing process, click on the button below
 
Add a business
 

Other Pages about Mad River Airpark

www.madriverinc.com
 
Update a link
 
Copyright © AirNav, LLC. All rights reserved. Privacy Policy  Contact